43NY weather

Public forecast

Using degrees Fahrenheit for public forecast. Weather courtesy of forecast.io.

Closest aviation weather report (METAR) to St. Joseph's Hospital Heliport

Closest report is Syracuse Hancock International Airport, 3.9 nm (7.2 km) NNE. Retrieved 2020/08/15 03:54 UTC (35 minutes ago):

KSYR 150354Z 09005KT 10SM BKN085 21/17 A3003 RMK AO2 SLP164 T02110172

Closest aviation forecast (TAF) to St. Joseph's Hospital Heliport

Closest forecast is Syracuse Hancock International Airport, 3.9 nm (7.2 km) NNE. Retrieved 2020-08-15 00:22 UTC (4 hours ago):

TAF KSYR 142320Z 1500/1524 VRB04KT P6SM FEW250